Time;durP1;ratioP1;P1;durP2;ratioP2;P2;SDS_P1;SDS_P2;PMS_P1;PMS_P2;Temp;Humidity;BMP_temperature;BMP_pressure;BME280_temperature;BME280_humidity;BME280_pressure;Samples;Min_cycle;Max_cycle;Signal;HPM_P1;HPM_P2
2022/06/09 00:00:41;;;;;;;7.95;5.30;;;;;;;15.88;100.00;94379.47;5057864;28;20033;-78
2022/06/09 00:03:15;;;;;;;6.47;5.13;;;;;;;15.98;100.00;94397.78;5060802;28;20064;-77
2022/06/09 00:05:43;;;;;;;10.27;5.28;;;;;;;15.96;100.00;94392.81;5058496;28;20032;-77
2022/06/09 00:08:11;;;;;;;8.13;5.38;;;;;;;15.86;100.00;94388.44;5062811;28;20048;-77
2022/06/09 00:10:47;;;;;;;8.57;5.13;;;;;;;15.91;100.00;94394.69;5057765;28;20521;-77
2022/06/09 00:13:14;;;;;;;8.90;4.95;;;;;;;15.92;100.00;94375.22;5059582;28;20044;-78
2022/06/09 00:15:41;;;;;;;7.93;5.75;;;;;;;15.97;100.00;94377.81;5058408;28;20837;-78
2022/06/09 00:18:08;;;;;;;7.85;5.82;;;;;;;15.95;100.00;94379.94;5058584;28;20045;-78
2022/06/09 00:20:36;;;;;;;7.43;4.65;;;;;;;15.88;100.00;94376.84;5056619;28;20074;-78
2022/06/09 00:23:03;;;;;;;10.73;5.40;;;;;;;15.88;100.00;94384.72;5061843;28;20091;-78
2022/06/09 00:25:30;;;;;;;7.63;5.70;;;;;;;15.85;100.00;94371.09;5057024;28;20090;-77
2022/06/09 00:27:57;;;;;;;9.07;5.45;;;;;;;15.86;100.00;94377.94;5061209;28;20037;-77
2022/06/09 00:30:24;;;;;;;14.82;5.00;;;;;;;15.84;100.00;94380.00;5060952;28;20064;-77
2022/06/09 00:32:51;;;;;;;9.68;6.40;;;;;;;15.75;100.00;94354.63;5058433;28;20055;-77
2022/06/09 00:35:18;;;;;;;11.35;5.95;;;;;;;15.92;100.00;94376.03;5063769;28;20070;-78
2022/06/09 00:37:45;;;;;;;9.20;6.00;;;;;;;15.95;100.00;94385.19;5059929;28;20041;-78
2022/06/09 00:40:13;;;;;;;10.57;6.07;;;;;;;15.90;100.00;94377.34;5061324;28;20045;-78
2022/06/09 00:42:41;;;;;;;7.35;5.40;;;;;;;15.90;100.00;94382.59;5060704;28;20053;-78
2022/06/09 00:45:28;;;;;;;12.73;5.75;;;;;;;15.89;100.00;94381.84;5062620;28;20060;-77
2022/06/09 00:48:08;;;;;;;7.55;5.25;;;;;;;15.84;100.00;94374.75;5093528;27;20044;-77
2022/06/09 00:50:37;;;;;;;7.20;5.15;;;;;;;15.80;100.00;94373.75;5079411;28;20033;-78
2022/06/09 00:53:09;;;;;;;9.48;5.50;;;;;;;15.68;100.00;94365.41;5063130;28;20044;-78
2022/06/09 00:55:38;;;;;;;6.55;5.20;;;;;;;15.65;100.00;94374.63;5059599;28;20128;-78
2022/06/09 00:58:12;;;;;;;10.52;4.97;;;;;;;15.59;100.00;94369.69;5061688;28;20048;-77
2022/06/09 01:00:47;;;;;;;8.45;5.35;;;;;;;15.59;100.00;94380.19;5062720;28;20437;-77
2022/06/09 01:03:17;;;;;;;9.80;5.85;;;;;;;15.58;100.00;94365.50;5064896;28;20052;-78
2022/06/09 01:05:47;;;;;;;14.02;6.40;;;;;;;15.62;100.00;94377.00;5064453;28;20032;-77
2022/06/09 01:08:15;;;;;;;10.95;7.35;;;;;;;15.63;100.00;94375.97;5065749;28;20032;-79
2022/06/09 01:10:41;;;;;;;11.65;7.22;;;;;;;15.63;100.00;94371.50;5067170;28;20055;-78
2022/06/09 01:13:09;;;;;;;13.10;7.80;;;;;;;15.52;100.00;94356.06;5078701;28;20088;-77
2022/06/09 01:16:15;;;;;;;9.93;7.00;;;;;;;15.60;100.00;94373.88;5068077;28;20033;-77
2022/06/09 01:18:53;;;;;;;11.52;7.18;;;;;;;15.57;100.00;94374.41;5062958;28;20048;-77
2022/06/09 01:21:54;;;;;;;12.73;7.60;;;;;;;15.52;100.00;94356.06;5082480;28;20388;-76
2022/06/09 01:24:43;;;;;;;10.32;7.40;;;;;;;15.55;100.00;94360.78;5065256;28;20048;-78
2022/06/09 01:27:36;;;;;;;9.32;6.90;;;;;;;15.55;100.00;94361.56;5063431;28;20068;-79
2022/06/09 01:30:36;;;;;;;12.20;7.60;;;;;;;15.54;100.00;94353.97;5061703;28;20052;-78
2022/06/09 01:33:21;;;;;;;14.13;8.07;;;;;;;15.46;100.00;94350.84;5047072;28;20061;-78
2022/06/09 01:35:56;;;;;;;11.18;7.22;;;;;;;15.44;100.00;94354.81;5060382;28;20116;-78
2022/06/09 01:38:23;;;;;;;11.13;7.55;;;;;;;15.39;100.00;94347.75;5058937;28;20043;-78
2022/06/09 01:40:50;;;;;;;11.27;7.32;;;;;;;15.45;100.00;94351.16;5059572;28;20129;-78
2022/06/09 01:43:18;;;;;;;14.95;7.82;;;;;;;15.33;100.00;94343.59;5061114;28;20044;-78
2022/06/09 01:46:09;;;;;;;13.10;7.78;;;;;;;15.42;100.00;94351.69;5058975;28;20053;-76
2022/06/09 01:48:36;;;;;;;11.52;7.05;;;;;;;15.37;100.00;94349.88;5093269;28;20375;-77
2022/06/09 01:51:08;;;;;;;9.63;6.78;;;;;;;15.36;100.00;94347.50;5073772;28;20044;-77
2022/06/09 01:53:52;;;;;;;9.10;6.57;;;;;;;15.30;100.00;94344.16;5093460;27;20075;-77
2022/06/09 01:56:23;;;;;;;13.68;7.90;;;;;;;15.23;100.00;94339.22;5077833;28;20059;-77
2022/06/09 01:58:55;;;;;;;11.95;7.68;;;;;;;15.20;100.00;94338.97;5061111;28;20049;-77
2022/06/09 02:01:28;;;;;;;11.45;7.53;;;;;;;15.09;100.00;94328.53;5076817;28;20051;-76
2022/06/09 02:03:59;;;;;;;13.15;7.68;;;;;;;15.09;100.00;94339.03;5062414;28;20806;-77
2022/06/09 02:06:28;;;;;;;9.98;7.30;;;;;;;15.21;100.00;94351.81;5062803;28;20044;-76
2022/06/09 02:08:55;;;;;;;11.02;6.85;;;;;;;15.22;100.00;94349.97;5059746;28;20044;-77
2022/06/09 02:11:23;;;;;;;10.40;6.60;;;;;;;15.16;100.00;94337.94;5076394;28;20048;-76
2022/06/09 02:13:52;;;;;;;16.77;6.32;;;;;;;15.18;100.00;94335.81;5049035;28;20036;-76
2022/06/09 02:16:21;;;;;;;13.88;5.40;;;;;;;15.22;100.00;94342.13;5062091;28;20052;-76
2022/06/09 02:18:56;;;;;;;9.73;5.75;;;;;;;15.22;100.00;94342.13;5057168;28;20138;-76
2022/06/09 02:21:23;;;;;;;;;;;;;;;15.21;100.00;94340.53;5061016;28;20636;-76
2022/06/09 02:23:52;;;;;;;12.05;5.72;;;;;;;15.13;100.00;94330.63;5058324;28;19924;-75
2022/06/09 02:26:20;;;;;;;10.48;6.50;;;;;;;15.25;100.00;94344.16;5043227;28;20048;-74
2022/06/09 02:28:47;;;;;;;14.10;6.93;;;;;;;15.24;100.00;94342.63;5060202;28;20750;-76
2022/06/09 02:31:17;;;;;;;15.57;7.30;;;;;;;15.30;100.00;94354.63;5058205;28;20051;-76
2022/06/09 02:33:44;;;;;;;12.18;8.77;;;;;;;15.12;100.00;94347.41;5060097;28;20052;-76
2022/06/09 02:36:11;;;;;;;24.33;13.77;;;;;;;15.04;100.00;94341.66;5055488;28;20548;-78
2022/06/09 02:38:38;;;;;;;17.20;8.60;;;;;;;15.17;100.00;94360.50;5060278;28;20036;-78
2022/06/09 02:41:06;;;;;;;20.75;10.85;;;;;;;15.09;100.00;94360.00;5058974;28;20690;-78
2022/06/09 02:43:33;;;;;;;20.15;11.57;;;;;;;15.22;100.00;94369.13;5060984;28;20067;-77
2022/06/09 02:46:01;;;;;;;24.13;15.05;;;;;;;15.28;100.00;94372.50;5054252;28;20044;-78
2022/06/09 02:48:28;;;;;;;17.30;8.70;;;;;;;15.31;100.00;94371.97;5074827;28;20044;-77
2022/06/09 02:50:55;;;;;;;11.85;7.32;;;;;;;15.30;100.00;94359.88;5054871;28;20044;-77
2022/06/09 02:53:23;;;;;;;14.10;8.80;;;;;;;15.34;100.00;94366.19;5055753;28;20040;-78
2022/06/09 02:55:50;;;;;;;13.52;8.60;;;;;;;15.34;100.00;94350.44;5052509;28;20040;-78
2022/06/09 02:58:17;;;;;;;13.30;8.45;;;;;;;15.40;100.00;94365.09;5055537;28;20059;-78
2022/06/09 03:00:44;;;;;;;17.27;8.52;;;;;;;15.31;100.00;94350.97;5053027;28;20280;-77
2022/06/09 03:03:14;;;;;;;11.60;7.20;;;;;;;15.25;100.00;94347.59;5059841;28;20078;-77
2022/06/09 03:05:42;;;;;;;10.00;4.63;;;;;;;15.33;100.00;94364.59;5064494;28;20804;-78
2022/06/09 03:08:08;;;;;;;6.53;3.28;;;;;;;15.23;100.00;94359.41;5062956;28;20040;-78
2022/06/09 03:10:36;;;;;;;5.60;2.85;;;;;;;15.25;100.00;94367.78;5064697;28;20056;-78
2022/06/09 03:13:04;;;;;;;4.00;2.72;;;;;;;15.22;100.00;94368.34;5061356;28;20728;-78
2022/06/09 03:15:33;;;;;;;6.05;2.50;;;;;;;15.20;100.00;94370.47;5062555;28;20048;-77
2022/06/09 03:17:59;;;;;;;8.98;2.83;;;;;;;15.21;100.00;94372.00;5062644;28;20256;-76
2022/06/09 03:20:29;;;;;;;8.02;3.10;;;;;;;15.19;100.00;94368.88;5068875;28;20037;-76
2022/06/09 03:22:56;;;;;;;4.68;2.58;;;;;;;15.10;100.00;94356.31;5075753;28;20036;-76
2022/06/09 03:25:24;;;;;;;4.22;2.38;;;;;;;15.24;100.00;94371.47;5070208;28;20050;-76
2022/06/09 03:27:51;;;;;;;4.22;2.47;;;;;;;15.31;100.00;94381.69;5065836;28;20805;-76
2022/06/09 03:30:19;;;;;;;4.70;2.30;;;;;;;15.34;100.00;94366.19;5064415;28;20540;-77
2022/06/09 03:32:45;;;;;;;5.82;2.55;;;;;;;15.41;100.00;94366.66;5057423;28;20072;-77
2022/06/09 03:35:13;;;;;;;4.10;2.53;;;;;;;15.47;100.00;94365.56;5059973;28;20040;-77
2022/06/09 03:37:40;;;;;;;5.38;3.08;;;;;;;15.55;100.00;94366.03;5087181;27;20470;-77
2022/06/09 03:40:11;;;;;;;3.25;2.33;;;;;;;15.59;100.00;94372.31;5070329;28;20040;-77
2022/06/09 03:42:38;;;;;;;3.58;2.25;;;;;;;15.63;100.00;94370.72;5064471;28;20124;-77
2022/06/09 03:45:06;;;;;;;11.55;2.60;;;;;;;15.66;100.00;94368.34;5058469;28;20033;-76
2022/06/09 03:47:32;;;;;;;4.53;2.30;;;;;;;15.67;100.00;94366.47;5063265;28;20055;-76
2022/06/09 03:49:59;;;;;;;4.18;2.97;;;;;;;15.75;100.00;94371.16;5059995;28;20931;-76
2022/06/09 03:52:27;;;;;;;3.95;2.50;;;;;;;15.66;100.00;94343.91;5068792;28;20036;-77
2022/06/09 03:54:54;;;;;;;3.15;2.33;;;;;;;15.89;100.00;94370.56;5065865;28;20039;-77
2022/06/09 03:57:23;;;;;;;3.75;2.53;;;;;;;16.01;100.00;94368.34;5066503;28;20083;-78
2022/06/09 03:59:50;;;;;;;5.82;2.60;;;;;;;16.01;100.00;94353.38;5081694;28;20048;-77
2022/06/09 04:02:18;;;;;;;5.13;2.95;;;;;;;16.22;100.00;94372.38;5070961;28;20052;-71
2022/06/09 04:04:49;;;;;;;10.43;3.22;;;;;;;16.18;100.00;94379.22;5072612;28;20041;-70
2022/06/09 04:07:20;;;;;;;6.28;3.20;;;;;;;16.06;100.00;94376.16;5071621;28;20057;-70
2022/06/09 04:09:47;;;;;;;5.28;2.85;;;;;;;16.04;100.00;94375.66;5066019;28;20105;-70
2022/06/09 04:12:14;;;;;;;4.97;3.05;;;;;;;15.99;100.00;94362.56;5065742;28;20039;-69
2022/06/09 04:14:42;;;;;;;4.78;3.00;;;;;;;16.01;100.00;94357.84;5064919;28;20041;-70
2022/06/09 04:17:12;;;;;;;8.43;3.70;;;;;;;16.05;100.00;94364.88;5062126;28;20047;-70
2022/06/09 04:19:39;;;;;;;5.80;3.65;;;;;;;16.06;100.00;94365.66;5062409;28;20040;-70
2022/06/09 04:22:06;;;;;;;8.70;5.20;;;;;;;16.14;100.00;94370.31;5063056;28;20057;-69
2022/06/09 04:24:34;;;;;;;8.85;5.60;;;;;;;16.02;100.00;94364.66;5061154;28;20083;-70
2022/06/09 04:27:01;;;;;;;10.05;5.78;;;;;;;16.01;100.00;94368.34;5072268;28;20048;-70
2022/06/09 04:29:28;;;;;;;9.52;6.38;;;;;;;16.05;100.00;94354.38;5061291;28;20051;-70
2022/06/09 04:31:55;;;;;;;9.48;5.55;;;;;;;15.94;100.00;94368.66;5055762;28;20086;-70
2022/06/09 04:34:22;;;;;;;10.85;6.47;;;;;;;15.95;100.00;94369.44;5057833;28;20084;-70
2022/06/09 04:36:49;;;;;;;8.73;6.10;;;;;;;15.88;100.00;94361.09;5057461;28;20033;-70
2022/06/09 04:39:16;;;;;;;9.82;6.57;;;;;;;15.90;100.00;94345.84;5060340;28;20045;-71
2022/06/09 04:41:43;;;;;;;9.65;6.93;;;;;;;15.97;100.00;94355.00;5058893;28;20433;-70
2022/06/09 04:44:11;;;;;;;10.77;6.45;;;;;;;15.92;100.00;94356.84;5061031;28;20454;-70
2022/06/09 04:46:38;;;;;;;11.63;6.97;;;;;;;16.09;100.00;94354.59;5058134;28;20187;-70
2022/06/09 04:49:05;;;;;;;9.15;6.30;;;;;;;16.25;100.00;94358.66;5056146;28;20049;-70
2022/06/09 04:51:33;;;;;;;8.65;5.88;;;;;;;16.37;100.00;94352.25;5064840;28;20776;-69
2022/06/09 04:53:59;;;;;;;14.15;6.82;;;;;;;16.43;100.00;94364.28;5059198;28;20045;-70
2022/06/09 04:56:26;;;;;;;12.52;6.70;;;;;;;16.31;100.00;94361.25;5058283;28;20102;-70
2022/06/09 04:58:53;;;;;;;11.02;7.57;;;;;;;16.25;100.00;94352.63;5059889;28;20067;-70
2022/06/09 05:01:28;;;;;;;10.65;6.65;;;;;;;16.27;100.00;94365.50;5060992;28;20044;-71
2022/06/09 05:03:56;;;;;;;9.10;6.32;;;;;;;16.20;100.00;94366.59;5056371;28;20769;-70
2022/06/09 05:06:25;;;;;;;8.02;5.18;;;;;;;16.17;100.00;94372.41;5056611;28;20044;-70
2022/06/09 05:08:53;;;;;;;7.85;5.20;;;;;;;16.04;100.00;94368.59;5057512;28;20043;-71
2022/06/09 05:11:20;;;;;;;6.47;4.78;;;;;;;16.17;100.00;94372.41;5061279;28;20040;-71
2022/06/09 05:13:47;;;;;;;8.07;4.63;;;;;;;16.23;100.00;94376.53;5058149;28;20044;-71
2022/06/09 05:16:17;;;;;;;5.40;3.85;;;;;;;16.27;100.00;94370.75;5056937;28;20029;-71
2022/06/09 05:18:44;;;;;;;7.07;4.60;;;;;;;16.39;100.00;94379.03;5048378;28;20124;-71
2022/06/09 05:21:11;;;;;;;7.07;4.80;;;;;;;16.52;100.00;94373.13;5057277;28;20049;-71
2022/06/09 05:23:38;;;;;;;7.47;4.80;;;;;;;16.65;100.00;94370.88;5058245;28;20127;-71
2022/06/09 05:26:06;;;;;;;8.45;4.97;;;;;;;16.73;100.00;94370.28;5058150;28;20047;-72
2022/06/09 05:28:33;;;;;;;8.55;4.55;;;;;;;16.83;100.00;94375.44;5055804;28;20044;-72
2022/06/09 05:31:01;;;;;;;9.68;5.60;;;;;;;16.92;100.00;94368.47;5054521;28;20437;-72
2022/06/09 05:33:29;;;;;;;6.95;5.55;;;;;;;16.99;100.00;94376.81;5067069;28;20197;-72
2022/06/09 05:35:56;;;;;;;12.07;5.53;;;;;;;17.06;100.00;94375.69;5055515;28;20058;-72
2022/06/09 05:46:46;;;;;;;11.35;6.32;;;;;;;18.01;100.00;94355.41;5060300;28;20040;-72
2022/06/09 05:49:18;;;;;;;11.95;7.78;;;;;;;18.31;100.00;94356.75;5062899;28;20051;-72
2022/06/09 05:51:49;;;;;;;14.75;8.32;;;;;;;18.53;100.00;94363.97;5058147;28;20040;-72
2022/06/09 05:54:16;;;;;;;9.90;7.10;;;;;;;18.52;100.00;94361.63;5061153;28;20043;-72
2022/06/09 05:56:43;;;;;;;13.20;7.63;;;;;;;18.38;100.00;94368.75;5076699;28;20048;-72
2022/06/09 05:59:10;;;;;;;9.90;7.35;;;;;;;18.28;100.00;94351.28;5062939;28;20073;-71
2022/06/09 06:01:37;;;;;;;13.77;7.82;;;;;;;18.14;100.00;94367.81;5040594;28;20048;-71
2022/06/09 06:04:06;;;;;;;9.95;7.72;;;;;;;17.87;100.00;94351.94;5058007;28;20047;-72
2022/06/09 06:06:33;;;;;;;10.70;7.65;;;;;;;17.66;100.00;94336.41;5057187;28;20024;-71
2022/06/09 06:09:12;;;;;;;18.23;7.60;;;;;;;17.55;100.00;94340.28;5054422;28;20477;-73
2022/06/09 06:11:39;;;;;;;11.43;7.97;;;;;;;17.75;100.00;94361.06;5055152;28;20051;-68
2022/06/09 06:14:08;;;;;;;13.52;8.27;;;;;;;17.80;100.00;94362.03;5057903;28;20037;-67
2022/06/09 06:16:36;;;;;;;14.75;8.52;;;;;;;17.95;100.00;94344.16;5057631;28;20807;-63
2022/06/09 06:19:05;;;;;;;9.48;7.18;;;;;;;18.04;100.00;94352.19;5054461;28;20059;-64
2022/06/09 06:21:33;;;;;;;13.75;8.30;;;;;;;18.15;100.00;94350.94;5057830;28;20040;-63
2022/06/09 06:24:00;;;;;;;10.73;7.75;;;;;;;18.19;100.00;94347.75;5055543;28;20047;-63
2022/06/09 06:26:27;;;;;;;13.00;8.82;;;;;;;18.36;100.00;94342.66;5056617;28;20044;-74
2022/06/09 06:28:54;;;;;;;14.27;8.48;;;;;;;18.78;100.00;94347.94;5054946;28;20135;-73
2022/06/09 06:31:21;;;;;;;12.48;8.13;;;;;;;18.90;100.00;94335.84;5074539;28;20040;-73
2022/06/09 06:33:49;;;;;;;15.00;8.85;;;;;;;18.94;100.00;94341.31;5057064;28;20074;-73
2022/06/09 06:36:16;;;;;;;10.27;8.07;;;;;;;19.01;100.00;94335.66;5055139;28;20045;-73
2022/06/09 06:38:42;;;;;;;11.38;8.60;;;;;;;18.91;100.00;94342.72;5071940;28;20048;-72
2022/06/09 06:41:11;;;;;;;12.23;8.85;;;;;;;18.98;100.00;94352.06;5055855;28;20465;-72
2022/06/09 06:43:47;;;;;;;14.57;9.48;;;;;;;19.08;100.00;94351.88;5055609;28;20052;-72
2022/06/09 06:46:18;;;;;;;12.63;8.68;;;;;;;19.26;100.00;94348.31;5059348;28;20033;-72
2022/06/09 06:48:45;;;;;;;15.32;8.75;;;;;;;19.28;100.00;94346.19;5055385;28;20054;-72
2022/06/09 06:51:13;;;;;;;13.20;8.95;;;;;;;19.59;100.00;94350.78;5057647;28;20040;-73
2022/06/09 06:53:40;;;;;;;11.50;8.60;;;;;;;19.93;100.00;94348.69;5063867;28;20048;-72
2022/06/09 06:56:08;;;;;;;12.65;8.45;;;;;;;19.96;100.00;94353.38;5054061;28;20608;-71
2022/06/09 06:58:36;;;;;;;12.18;8.75;;;;;;;20.31;100.00;94362.31;5059209;28;20128;-71
2022/06/09 07:01:04;;;;;;;10.32;7.57;;;;;;;20.57;100.00;94356.34;5060079;28;20041;-72
2022/06/09 07:03:31;;;;;;;9.88;7.28;;;;;;;21.02;100.00;94348.25;5056825;28;20425;-72
2022/06/09 07:06:02;;;;;;;12.27;8.00;;;;;;;21.09;99.20;94351.22;5060388;28;20509;-72
2022/06/09 07:08:29;;;;;;;8.73;6.72;;;;;;;21.11;95.98;94343.75;5057575;28;20048;-71
2022/06/09 07:10:58;;;;;;;11.45;8.27;;;;;;;21.19;98.06;94348.31;5063986;28;20133;-71
2022/06/09 07:13:26;;;;;;;18.90;8.40;;;;;;;21.02;98.27;94345.63;5054039;28;20032;-72
2022/06/09 07:15:53;;;;;;;14.95;8.55;;;;;;;20.93;100.00;94339.53;5038313;28;20044;-72
2022/06/09 07:18:27;;;;;;;10.30;8.05;;;;;;;20.76;100.00;94346.34;5050145;28;20045;-65
2022/06/09 07:20:55;;;;;;;11.65;9.25;;;;;;;20.80;100.00;94343.84;5053741;28;20068;-65
2022/06/09 07:23:22;;;;;;;17.15;9.70;;;;;;;21.05;100.00;94350.31;5072321;28;20503;-65
2022/06/09 07:25:49;;;;;;;15.70;10.35;;;;;;;20.93;100.00;94352.75;5060210;28;20049;-65
2022/06/09 07:28:17;;;;;;;16.27;8.25;;;;;;;20.99;100.00;94354.97;5056229;28;20051;-65
2022/06/09 07:30:45;;;;;;;10.32;7.75;;;;;;;21.19;96.26;94356.25;5060975;28;20444;-64
2022/06/09 07:33:12;;;;;;;13.68;8.60;;;;;;;21.51;95.22;94346.31;5053735;28;20440;-65
2022/06/09 07:35:41;;;;;;;9.30;7.75;;;;;;;21.71;91.60;94349.44;5058027;28;20048;-65
2022/06/09 07:38:11;;;;;;;12.90;8.38;;;;;;;21.68;89.46;94347.41;5055153;28;20052;-65
2022/06/09 07:40:40;;;;;;;10.85;8.38;;;;;;;21.41;91.60;94351.09;5055623;28;20049;-65
2022/06/09 07:43:08;;;;;;;11.68;8.48;;;;;;;21.43;92.92;94352.38;5060400;28;20155;-65
2022/06/09 07:45:37;;;;;;;10.40;8.60;;;;;;;21.36;94.57;94344.13;5061317;28;20040;-65
2022/06/09 07:48:05;;;;;;;11.93;8.55;;;;;;;21.39;93.41;94343.47;5060726;28;20041;-64
2022/06/09 07:50:37;;;;;;;10.32;8.45;;;;;;;21.79;93.74;94329.31;5058619;28;20041;-65
2022/06/09 07:53:05;;;;;;;12.25;7.88;;;;;;;21.63;90.68;94342.28;5065153;28;20516;-71
2022/06/09 07:55:33;;;;;;;11.75;9.00;;;;;;;21.62;93.60;94335.41;5059484;28;20037;-69
2022/06/09 07:58:00;;;;;;;11.88;8.60;;;;;;;21.52;91.46;94326.69;5064303;28;20049;-69
2022/06/09 08:00:28;;;;;;;9.23;7.43;;;;;;;21.50;90.49;94328.06;5057598;28;20049;-67
2022/06/09 08:02:55;;;;;;;9.45;7.38;;;;;;;21.63;91.59;94321.09;5051361;28;20037;-67
2022/06/09 08:05:26;;;;;;;11.32;8.45;;;;;;;21.55;90.72;94326.06;5064683;28;20056;-67
2022/06/09 08:07:53;;;;;;;9.57;7.47;;;;;;;21.76;87.93;94320.13;5064291;28;20861;-69
2022/06/09 08:10:23;;;;;;;10.38;8.00;;;;;;;22.09;88.91;94311.63;5058788;28;20044;-69
2022/06/09 08:12:53;;;;;;;11.75;8.02;;;;;;;22.46;89.47;94314.69;5061091;28;20739;-68
2022/06/09 08:15:20;;;;;;;15.73;9.07;;;;;;;22.71;89.14;94300.50;5092204;27;20045;-69
2022/06/09 08:17:47;;;;;;;13.38;7.35;;;;;;;23.02;84.75;94310.00;5059425;28;20044;-68
2022/06/09 08:20:14;;;;;;;10.38;7.20;;;;;;;23.12;82.40;94308.09;5059581;28;20037;-69
2022/06/09 08:23:11;;;;;;;11.10;7.97;;;;;;;23.18;79.97;94312.91;5058947;28;20043;-69
2022/06/09 08:25:40;;;;;;;13.60;9.85;;;;;;;22.73;80.65;94310.03;5054502;28;20912;-71
2022/06/09 08:28:07;;;;;;;12.52;8.60;;;;;;;22.30;81.88;94307.22;5088982;27;20154;-71
2022/06/09 08:30:36;;;;;;;9.82;7.80;;;;;;;22.09;83.66;94306.34;5061468;28;20597;-71
2022/06/09 08:33:04;;;;;;;12.20;8.30;;;;;;;22.03;82.69;94299.66;5054690;28;20101;-71
2022/06/09 08:35:32;;;;;;;9.82;7.60;;;;;;;22.13;82.72;94301.97;5054597;28;20037;-71
2022/06/09 08:37:59;;;;;;;12.35;7.57;;;;;;;22.38;80.89;94305.63;5051846;28;20040;-74
2022/06/09 08:41:13;;;;;;;10.80;8.30;;;;;;;22.49;80.92;94303.41;5053354;28;20037;-71
2022/06/09 08:43:47;;;;;;;8.88;6.22;;;;;;;22.84;79.08;94300.59;5044705;28;20143;-71
2022/06/09 08:46:49;;;;;;;8.88;6.20;;;;;;;23.02;77.09;94299.38;5058744;28;21576;-69
2022/06/09 08:49:29;;;;;;;13.35;6.55;;;;;;;23.17;75.20;94299.94;5017545;28;20084;-70
2022/06/09 08:52:05;;;;;;;15.50;7.03;;;;;;;23.16;75.61;94298.41;5057104;28;20079;-70
2022/06/09 08:54:35;;;;;;;8.95;7.35;;;;;;;23.00;77.25;94300.81;5058616;28;20028;-70
2022/06/09 08:57:12;;;;;;;10.85;7.25;;;;;;;22.98;79.39;94287.09;5060463;28;20056;-70
2022/06/09 08:59:42;;;;;;;9.95;7.80;;;;;;;23.38;80.84;94289.31;5057663;28;20037;-70
2022/06/09 09:02:38;;;;;;;9.25;6.90;;;;;;;23.68;75.64;94287.34;5061198;28;20040;-71
2022/06/09 09:05:14;;;;;;;6.07;5.15;;;;;;;23.83;68.60;94289.41;5058357;28;20048;-70
2022/06/09 09:07:51;;;;;;;8.55;5.28;;;;;;;23.84;68.16;94280.34;5061590;28;20645;-70
2022/06/09 09:10:31;;;;;;;7.72;5.68;;;;;;;23.78;68.93;94281.63;5060726;28;20110;-71
2022/06/09 09:13:22;;;;;;;7.30;5.90;;;;;;;24.07;69.19;94277.28;5062990;28;20036;-71
2022/06/09 09:15:56;;;;;;;7.70;6.10;;;;;;;24.20;68.95;94273.56;5057338;28;20052;-71
2022/06/09 09:18:42;;;;;;;6.13;5.25;;;;;;;24.34;68.09;94275.09;5060649;28;20529;-71
2022/06/09 09:21:12;;;;;;;8.55;4.97;;;;;;;24.67;67.44;94271.59;5060096;28;20841;-71
2022/06/09 09:23:51;;;;;;;10.70;6.35;;;;;;;24.95;65.27;94261.78;5056441;28;20554;-71
2022/06/09 09:26:44;;;;;;;9.80;6.15;;;;;;;25.00;65.15;94269.56;5050400;28;20155;-71
2022/06/09 09:29:19;;;;;;;7.57;4.75;;;;;;;24.75;59.26;94271.47;5049614;28;20037;-71
2022/06/09 09:31:52;;;;;;;8.48;4.30;;;;;;;24.61;62.93;94263.84;5048680;28;20048;-71
2022/06/09 09:34:33;;;;;;;4.85;4.38;;;;;;;24.82;59.86;94252.28;5075497;28;20064;-71
2022/06/09 09:37:13;;;;;;;6.05;4.85;;;;;;;25.09;60.94;94250.78;5060232;28;20040;-71
2022/06/09 09:39:47;;;;;;;;;;;;;;;25.07;59.61;94253.00;5059254;28;20036;-70
2022/06/09 09:42:20;;;;;;;18.10;6.63;;;;;;;25.11;61.87;94237.88;5056811;28;19929;-70
2022/06/09 09:45:06;;;;;;;7.13;5.07;;;;;;;24.97;59.89;94248.94;5059079;28;20383;-70
2022/06/09 09:47:46;;;;;;;5.57;4.88;;;;;;;24.75;60.88;94228.09;5054813;28;21042;-70
2022/06/09 09:50:20;;;;;;;8.60;6.43;;;;;;;25.03;60.06;94230.03;5059492;28;20939;-70
2022/06/09 09:52:55;;;;;;;8.02;5.50;;;;;;;24.81;60.33;94234.72;5054913;28;20966;-70
2022/06/09 09:55:27;;;;;;;5.63;4.43;;;;;;;24.97;57.12;94219.63;5055944;28;20055;-70
2022/06/09 09:58:12;;;;;;;6.38;4.00;;;;;;;25.46;57.85;94223.25;5061325;28;20102;-70
2022/06/09 10:00:40;;;;;;;9.85;7.82;;;;;;;25.80;56.91;94218.41;5059130;28;20067;-70
2022/06/09 10:09:13;;;;;;;6.18;3.83;;;;;;;26.38;50.98;94226.72;5065728;28;20036;-70
2022/06/09 10:12:04;;;;;;;5.53;3.65;;;;;;;26.12;51.29;94214.66;5050018;28;20060;-69
2022/06/09 10:14:33;;;;;;;;;;;;;;;26.55;51.29;94220.25;5045891;28;20056;-70
2022/06/09 10:17:01;;;;;;;4.10;2.70;;;;;;;26.95;46.54;94215.78;5054213;28;19924;-68
2022/06/09 10:19:53;;;;;;;4.05;3.22;;;;;;;27.35;47.33;94217.38;5048109;28;20116;-68
2022/06/09 10:22:22;;;;;;;5.63;3.30;;;;;;;27.76;45.08;94215.06;5051234;28;20041;-68
2022/06/09 10:25:04;;;;;;;4.20;2.90;;;;;;;28.05;43.32;94216.34;5052506;28;20052;-68
2022/06/09 10:27:37;;;;;;;3.28;2.40;;;;;;;27.80;38.54;94215.91;5050040;28;20732;-68
2022/06/09 10:30:21;;;;;;;4.40;2.67;;;;;;;27.84;38.31;94212.16;5048846;28;20900;-68
2022/06/09 10:32:59;;;;;;;2.92;1.73;;;;;;;27.83;36.00;94209.84;5050459;28;20065;-68
2022/06/09 10:35:44;;;;;;;3.10;2.10;;;;;;;28.00;36.62;94209.41;5053491;28;20056;-68
2022/06/09 10:38:35;;;;;;;3.05;2.42;;;;;;;28.55;36.49;94200.34;5054085;28;20028;-68
2022/06/09 10:41:09;;;;;;;3.22;2.10;;;;;;;28.90;37.25;94199.25;5056340;28;20055;-68
2022/06/09 10:43:48;;;;;;;4.28;2.30;;;;;;;29.38;36.17;94196.03;5054166;28;20052;-68
2022/06/09 10:46:28;;;;;;;4.60;2.28;;;;;;;29.93;38.19;94188.19;5045804;28;20036;-68
2022/06/09 10:55:34;;;;;;;3.50;2.28;;;;;;;30.78;36.34;94183.84;5047813;28;20986;-68
2022/06/09 10:58:15;;;;;;;2.17;1.65;;;;;;;30.16;31.27;94179.94;5053678;28;20041;-68
2022/06/09 11:00:45;;;;;;;1.90;1.70;;;;;;;30.12;34.22;94184.50;5047714;28;20052;-68
2022/06/09 11:03:22;;;;;;;3.10;2.15;;;;;;;30.29;35.15;94177.75;5057319;28;20051;-68
2022/06/09 11:06:01;;;;;;;3.10;1.85;;;;;;;30.09;34.21;94179.91;5049387;28;20786;-68
2022/06/09 11:08:43;;;;;;;2.33;1.40;;;;;;;29.84;33.43;94177.75;5049407;28;20036;-68
2022/06/09 11:11:29;;;;;;;2.28;1.55;;;;;;;30.31;32.57;94181.59;5052627;28;20047;-76
2022/06/09 11:14:30;;;;;;;2.10;1.10;;;;;;;30.68;30.75;94188.78;5057410;28;20535;-76
2022/06/09 11:17:07;;;;;;;2.78;1.63;;;;;;;30.02;31.66;94185.22;5053291;28;20115;-77
2022/06/09 11:19:55;;;;;;;1.70;1.30;;;;;;;29.99;30.07;94188.63;5059329;28;20123;-76
2022/06/09 11:22:57;;;;;;;3.70;1.25;;;;;;;30.21;31.22;94176.91;5068709;28;20045;-76
2022/06/09 11:25:37;;;;;;;3.80;1.40;;;;;;;30.50;31.73;94177.13;5055433;28;20074;-75
2022/06/09 11:28:29;;;;;;;1.80;1.60;;;;;;;30.72;31.94;94161.13;5060278;28;20052;-75
2022/06/09 11:31:12;;;;;;;4.43;1.30;;;;;;;30.77;29.81;94158.09;5049541;28;20052;-76
2022/06/09 11:34:10;;;;;;;2.50;1.40;;;;;;;30.84;30.14;94163.50;5048730;28;20049;-74
2022/06/09 11:36:44;;;;;;;3.17;1.38;;;;;;;30.76;30.12;94148.50;5063043;28;20641;-74
2022/06/09 11:39:50;;;;;;;2.30;1.80;;;;;;;31.31;29.79;94137.56;5053595;28;20120;-75
2022/06/09 11:42:36;;;;;;;2.30;1.52;;;;;;;31.97;25.37;94141.94;5047312;28;20452;-74
2022/06/09 11:45:52;;;;;;;3.75;1.42;;;;;;;32.67;26.32;94146.91;5070412;28;20057;-75
2022/06/09 11:48:28;;;;;;;1.98;1.50;;;;;;;32.82;26.22;94145.69;5055953;28;20102;-72
2022/06/09 11:50:56;;;;;;;2.50;1.60;;;;;;;32.19;26.32;94143.47;5074325;28;20733;-70
2022/06/09 11:53:29;;;;;;;4.40;1.77;;;;;;;32.12;26.88;94131.94;5058707;28;20037;-71
2022/06/09 11:56:40;;;;;;;3.10;1.80;;;;;;;32.39;27.94;94133.06;5058117;28;20033;-73
2022/06/09 11:59:07;;;;;;;3.67;1.27;;;;;;;33.14;26.33;94125.94;5075249;28;20417;-72
2022/06/09 12:01:40;;;;;;;3.42;2.08;;;;;;;33.11;27.20;94126.69;5059113;28;20056;-73
2022/06/09 12:04:19;;;;;;;2.33;1.50;;;;;;;33.33;27.45;94122.78;5058973;28;20036;-74
2022/06/09 12:07:13;;;;;;;2.60;1.33;;;;;;;33.26;26.11;94122.81;5072147;28;20029;-70
2022/06/09 12:10:14;;;;;;;4.20;1.40;;;;;;;32.88;26.29;94125.28;5060010;28;20041;-71